Terminal Aerodrome Forecast
Issued by NWS Midland/Odessa, TX

Home | Current Version | Previous Version | Text Only | Print | Product List | Glossary On
Versions: 1 2 3 4 5 6 7 8 9 10 11 12 13 14 15 16 17 18 19 20 21
000
FTUS44 KMAF 211500 AAB
TAFMAF
TAF AMD
KMAF 211540Z 2116/2212 22009KT 5SM BR SCT003
     FM211600 22009KT P6SM SCT005
     FM211900 25012G18KT P6SM SCT250
     FM220000 24010KT P6SM SCT250=

USA.gov is the U.S. government's official web portal to all federal, state and local government web resources and services.